createdAt,value
2018-01-19T00:00:51.268Z,2.06
2018-01-19T00:02:01.696Z,2.05
2018-01-19T00:03:11.946Z,2.06
2018-01-19T00:04:22.123Z,2.1
2018-01-19T00:05:32.049Z,2.09
2018-01-19T00:06:42.174Z,2.1
2018-01-19T00:07:52.287Z,2.1
2018-01-19T00:09:02.473Z,2.06
2018-01-19T00:10:12.732Z,2.12
2018-01-19T00:11:22.899Z,2.13
2018-01-19T00:12:33.295Z,2.12
2018-01-19T00:13:43.440Z,2.08
2018-01-19T00:14:53.594Z,2.1
2018-01-19T00:16:03.711Z,2.08
2018-01-19T00:17:13.826Z,2.12
2018-01-19T00:18:23.972Z,2.09
2018-01-19T00:19:34.105Z,2.12
2018-01-19T00:20:44.273Z,2.08
2018-01-19T00:21:54.469Z,2.1
2018-01-19T00:23:04.652Z,2.09
2018-01-19T00:24:14.825Z,2.03
2018-01-19T00:25:24.952Z,2.06
2018-01-19T00:26:35.107Z,1.95
2018-01-19T00:27:45.222Z,2
2018-01-19T00:28:55.379Z,1.94
2018-01-19T00:30:05.557Z,1.98
2018-01-19T00:31:15.712Z,1.91
2018-01-19T00:32:25.592Z,1.85
2018-01-19T00:33:36.754Z,1.88
2018-01-19T00:34:46.990Z,1.76
2018-01-19T00:35:57.150Z,1.77
2018-01-19T00:37:07.345Z,1.72
2018-01-19T00:38:17.487Z,1.84
2018-01-19T00:39:27.644Z,1.8
2018-01-19T00:40:37.794Z,1.74
2018-01-19T00:41:47.936Z,1.69
2018-01-19T00:42:58.069Z,1.69
2018-01-19T00:44:08.254Z,1.69
2018-01-19T00:45:18.515Z,1.73
2018-01-19T00:46:28.646Z,1.76
2018-01-19T00:47:38.883Z,1.73
2018-01-19T00:48:49.041Z,1.73
2018-01-19T00:49:59.285Z,1.74
2018-01-19T00:51:09.455Z,1.74
2018-01-19T00:52:19.590Z,1.73
2018-01-19T00:53:29.728Z,1.76
2018-01-19T00:54:39.837Z,1.73
2018-01-19T00:55:50.012Z,1.74
2018-01-19T00:57:00.173Z,1.84
2018-01-19T00:58:10.447Z,1.84
2018-01-19T00:59:20.349Z,1.84
2018-01-19T01:00:30.510Z,1.85
2018-01-19T01:01:40.646Z,1.84
2018-01-19T01:02:50.765Z,1.8
2018-01-19T01:04:00.944Z,1.92
2018-01-19T01:05:11.166Z,1.84
2018-01-19T01:06:21.389Z,1.8
2018-01-19T01:07:31.541Z,1.87
2018-01-19T01:08:41.678Z,1.82
2018-01-19T01:09:51.788Z,1.84
2018-01-19T01:11:01.910Z,1.79
2018-01-19T01:12:12.115Z,1.8
2018-01-19T01:13:22.358Z,1.85
2018-01-19T01:14:32.546Z,1.79
2018-01-19T01:15:42.737Z,1.72
2018-01-19T01:16:52.621Z,1.79
2018-01-19T01:18:02.730Z,1.82
2018-01-19T01:19:12.943Z,1.73
2018-01-19T01:20:23.127Z,1.8
2018-01-19T01:21:33.271Z,1.72
2018-01-19T01:22:43.384Z,1.82
2018-01-19T01:23:53.527Z,1.73
2018-01-19T01:25:03.623Z,1.76
2018-01-19T01:26:13.776Z,1.72
2018-01-19T01:27:24.015Z,1.84
2018-01-19T01:28:34.262Z,1.8
2018-01-19T01:29:44.382Z,1.9
2018-01-19T01:30:54.594Z,1.8
2018-01-19T01:32:04.788Z,1.8
2018-01-19T01:33:14.882Z,1.88
2018-01-19T01:34:25.070Z,1.84
2018-01-19T01:35:35.195Z,1.9
2018-01-19T01:36:45.321Z,1.85
2018-01-19T01:37:55.427Z,1.95
2018-01-19T01:39:05.550Z,1.94
2018-01-19T01:40:15.665Z,1.95
2018-01-19T01:41:25.765Z,1.95
2018-01-19T01:42:35.974Z,1.97
2018-01-19T01:43:46.144Z,1.95
2018-01-19T01:44:56.313Z,2.03
2018-01-19T01:46:06.537Z,1.97
2018-01-19T01:47:16.710Z,1.98
2018-01-19T01:48:26.820Z,2.06
2018-01-19T01:49:36.918Z,1.92
2018-01-19T01:50:47.042Z,2.06
2018-01-19T01:51:56.949Z,2.06
2018-01-19T01:53:07.089Z,2.05
2018-01-19T01:54:17.266Z,2.05
2018-01-19T01:55:27.107Z,2.03
2018-01-19T01:56:37.221Z,2.01
2018-01-19T01:57:47.342Z,2
2018-01-19T01:58:57.511Z,2.01
2018-01-19T02:00:08.605Z,2
2018-01-19T02:01:18.858Z,2
2018-01-19T02:02:28.927Z,1.95
2018-01-19T02:03:38.786Z,1.98
2018-01-19T02:04:48.947Z,1.9
2018-01-19T02:05:59.203Z,1.87
2018-01-19T02:07:09.405Z,1.92
2018-01-19T02:08:19.542Z,1.88
2018-01-19T02:09:29.663Z,1.73
2018-01-19T02:10:39.806Z,1.84
2018-01-19T02:11:49.907Z,1.72
2018-01-19T02:13:00.049Z,1.72
2018-01-19T02:14:10.202Z,1.69
2018-01-19T02:15:20.336Z,1.74
2018-01-19T02:16:31.439Z,1.72
2018-01-19T02:17:41.638Z,1.74
2018-01-19T02:18:51.788Z,1.74
2018-01-19T02:20:02.045Z,1.74
2018-01-19T02:21:12.320Z,1.76
2018-01-19T02:22:23.428Z,1.74
2018-01-19T02:23:33.332Z,1.73
2018-01-19T02:24:43.449Z,1.67
2018-01-19T02:25:53.634Z,1.72
2018-01-19T02:27:03.742Z,1.72
2018-01-19T02:28:13.861Z,1.51
2018-01-19T02:29:23.977Z,1.57
2018-01-19T02:30:34.141Z,1.64
2018-01-19T02:31:44.287Z,1.58
2018-01-19T02:32:54.432Z,1.54
2018-01-19T02:34:04.680Z,1.6
2018-01-19T02:35:14.870Z,1.57
2018-01-19T02:36:24.987Z,1.55
2018-01-19T02:37:34.849Z,1.5
2018-01-19T02:38:45.002Z,1.55
2018-01-19T02:39:55.228Z,1.53
2018-01-19T02:41:05.475Z,1.54
2018-01-19T02:42:15.690Z,1.55
2018-01-19T02:43:25.915Z,1.53
2018-01-19T02:44:36.014Z,1.54
2018-01-19T02:45:46.163Z,1.55
2018-01-19T02:46:56.288Z,1.42
2018-01-19T02:48:06.412Z,1.48
2018-01-19T02:49:16.668Z,1.51
2018-01-19T02:50:26.860Z,1.46
2018-01-19T02:51:37.134Z,1.43
2018-01-19T02:52:47.321Z,1.5
2018-01-19T02:53:57.435Z,1.46
2018-01-19T02:55:07.552Z,1.43
2018-01-19T02:56:17.669Z,1.43
2018-01-19T02:57:27.762Z,1.43
2018-01-19T02:58:37.990Z,1.4
2018-01-19T02:59:48.092Z,1.38
2018-01-19T03:00:58.245Z,1.4
2018-01-19T03:02:08.478Z,1.33
2018-01-19T03:03:18.629Z,1.32
2018-01-19T03:04:28.741Z,1.32
2018-01-19T03:05:38.900Z,1.35
2018-01-19T03:06:48.912Z,1.35
2018-01-19T03:07:59.136Z,1.36
2018-01-19T03:09:09.270Z,1.35
2018-01-19T03:10:19.498Z,1.3
2018-01-19T03:11:29.620Z,1.35
2018-01-19T03:12:39.718Z,1.32
2018-01-19T03:13:49.896Z,1.35
2018-01-19T03:15:00.969Z,1.35
2018-01-19T03:16:11.132Z,1.33
2018-01-19T03:17:21.409Z,1.33
2018-01-19T03:18:31.544Z,1.35
2018-01-19T03:19:41.776Z,1.25
2018-01-19T03:20:51.884Z,1.29
2018-01-19T03:22:01.776Z,1.38
2018-01-19T03:23:12.046Z,1.3
2018-01-19T03:24:22.302Z,1.36
2018-01-19T03:25:32.479Z,1.36
2018-01-19T03:26:42.705Z,1.33
2018-01-19T03:27:53.004Z,1.38
2018-01-19T03:29:03.140Z,1.39
2018-01-19T03:30:13.286Z,1.29
2018-01-19T03:31:23.489Z,1.32
2018-01-19T03:32:33.584Z,1.36
2018-01-19T03:33:43.703Z,1.33
2018-01-19T03:34:53.857Z,1.33
2018-01-19T03:36:04.059Z,1.29
2018-01-19T03:37:14.194Z,1.29
2018-01-19T03:38:24.310Z,1.33
2018-01-19T03:39:34.465Z,1.32
2018-01-19T03:40:44.600Z,1.28
2018-01-19T03:41:54.712Z,1.33
2018-01-19T03:43:04.579Z,1.32
2018-01-19T03:44:14.709Z,1.33
2018-01-19T03:45:25.861Z,1.3
2018-01-19T03:46:35.978Z,1.35
2018-01-19T03:47:46.121Z,1.29
2018-01-19T03:48:57.274Z,1.33
2018-01-19T03:50:07.388Z,1.35
2018-01-19T03:51:17.502Z,1.29
2018-01-19T03:52:27.623Z,1.35
2018-01-19T03:53:37.797Z,1.32
2018-01-19T03:54:47.896Z,1.32
2018-01-19T03:55:58.034Z,1.33
2018-01-19T03:57:08.135Z,1.35
2018-01-19T03:58:18.240Z,1.35
2018-01-19T03:59:28.327Z,1.3
2018-01-19T04:00:38.577Z,1.35
2018-01-19T04:01:48.712Z,1.32
2018-01-19T04:02:58.809Z,1.39
2018-01-19T04:04:08.952Z,1.33
2018-01-19T04:05:19.097Z,1.3
2018-01-19T04:06:29.213Z,1.3
2018-01-19T04:07:39.310Z,1.39
2018-01-19T04:08:49.444Z,1.42
2018-01-19T04:09:59.562Z,1.4
2018-01-19T04:11:09.407Z,1.42
2018-01-19T04:12:19.545Z,1.42
2018-01-19T04:13:29.712Z,1.47
2018-01-19T04:14:39.902Z,1.4
2018-01-19T04:15:50.015Z,1.39
2018-01-19T04:17:00.151Z,1.39
2018-01-19T04:18:10.337Z,1.48
2018-01-19T04:19:20.464Z,1.47
2018-01-19T04:20:30.636Z,1.46
2018-01-19T04:21:40.840Z,1.53
2018-01-19T04:22:50.935Z,1.46
2018-01-19T04:24:01.144Z,1.47
2018-01-19T04:25:11.311Z,1.55
2018-01-19T04:26:21.644Z,1.43
2018-01-19T04:27:31.828Z,1.57
2018-01-19T04:28:41.940Z,1.51
2018-01-19T04:29:52.287Z,1.48
2018-01-19T04:31:02.380Z,1.47
2018-01-19T04:32:12.544Z,1.38
2018-01-19T04:33:22.661Z,1.46
2018-01-19T04:34:32.779Z,1.39
2018-01-19T04:35:42.949Z,1.53
2018-01-19T04:36:53.106Z,1.47
2018-01-19T04:38:03.364Z,1.5
2018-01-19T04:39:13.102Z,1.46
2018-01-19T04:40:23.299Z,1.47
2018-01-19T04:41:33.548Z,1.47
2018-01-19T04:42:43.925Z,1.47
2018-01-19T04:43:54.026Z,1.51
2018-01-19T04:45:04.139Z,1.46
2018-01-19T04:46:14.264Z,1.54
2018-01-19T04:47:24.393Z,1.48
2018-01-19T04:48:34.505Z,1.5
2018-01-19T04:49:44.712Z,1.42
2018-01-19T04:50:54.804Z,1.46
2018-01-19T04:52:05.029Z,1.4
2018-01-19T04:53:15.157Z,1.46
2018-01-19T04:54:25.295Z,1.46
2018-01-19T04:55:35.160Z,1.51
2018-01-19T04:56:45.304Z,1.53
2018-01-19T04:57:55.443Z,1.53
2018-01-19T04:59:05.544Z,1.53
2018-01-19T05:00:15.727Z,1.42
2018-01-19T05:01:25.974Z,1.46
2018-01-19T05:02:36.134Z,1.51
2018-01-19T05:03:46.281Z,1.46
2018-01-19T05:04:56.534Z,1.54
2018-01-19T05:06:07.752Z,1.5
2018-01-19T05:07:17.640Z,1.5
2018-01-19T05:08:27.774Z,1.47
2018-01-19T05:09:37.898Z,1.5
2018-01-19T05:10:47.778Z,1.5
2018-01-19T05:11:57.919Z,1.46
2018-01-19T05:13:08.185Z,1.47
2018-01-19T05:14:18.311Z,1.4
2018-01-19T05:15:28.613Z,1.5
2018-01-19T05:16:38.912Z,1.47
2018-01-19T05:17:49.031Z,1.5
2018-01-19T05:18:59.182Z,1.48
2018-01-19T05:20:09.399Z,1.57
2018-01-19T05:21:19.697Z,1.51
2018-01-19T05:22:29.895Z,1.54
2018-01-19T05:23:40.086Z,1.55
2018-01-19T05:24:50.304Z,1.51
2018-01-19T05:26:00.575Z,1.53
2018-01-19T05:27:10.728Z,1.5
2018-01-19T05:28:20.938Z,1.54
2018-01-19T05:29:31.142Z,1.55
2018-01-19T05:30:41.358Z,1.5
2018-01-19T05:31:51.516Z,1.6
2018-01-19T05:33:01.613Z,1.5
2018-01-19T05:34:11.726Z,1.55
2018-01-19T05:35:21.845Z,1.5
2018-01-19T05:36:31.980Z,1.5
2018-01-19T05:37:42.124Z,1.6
2018-01-19T05:38:52.241Z,1.53
2018-01-19T05:40:02.380Z,1.54
2018-01-19T05:41:12.492Z,1.57
2018-01-19T05:42:22.681Z,1.51
2018-01-19T05:43:32.926Z,1.48
2018-01-19T05:44:43.061Z,1.62
2018-01-19T05:45:53.243Z,1.55
2018-01-19T05:47:03.415Z,1.51
2018-01-19T05:48:13.642Z,1.48
2018-01-19T05:49:23.786Z,1.48
2018-01-19T05:50:34.025Z,1.58
2018-01-19T05:51:44.208Z,1.54
2018-01-19T05:52:54.065Z,1.48
2018-01-19T05:54:04.181Z,1.55
2018-01-19T05:55:14.292Z,1.5
2018-01-19T05:56:24.148Z,1.55
2018-01-19T05:57:34.270Z,1.53
2018-01-19T05:58:44.390Z,1.55
2018-01-19T05:59:54.533Z,1.55
2018-01-19T06:01:04.411Z,1.51
2018-01-19T06:02:14.536Z,1.54
2018-01-19T06:03:24.679Z,1.53
2018-01-19T06:04:34.554Z,1.54
2018-01-19T06:05:44.694Z,1.5
2018-01-19T06:06:54.578Z,1.53
2018-01-19T06:08:04.706Z,1.55
2018-01-19T06:09:14.848Z,1.66
2018-01-19T06:10:25.037Z,1.53
2018-01-19T06:11:35.193Z,1.51
2018-01-19T06:12:45.406Z,1.54
2018-01-19T06:13:55.308Z,1.55
2018-01-19T06:15:05.444Z,1.6
2018-01-19T06:16:15.581Z,1.53
2018-01-19T06:17:25.813Z,1.54
2018-01-19T06:18:36.010Z,1.53
2018-01-19T06:19:46.259Z,1.55
2018-01-19T06:20:56.097Z,1.54
2018-01-19T06:22:05.952Z,1.5
2018-01-19T06:23:16.060Z,1.48
2018-01-19T06:24:26.194Z,1.55
2018-01-19T06:25:36.374Z,1.57
2018-01-19T06:26:46.481Z,1.55
2018-01-19T06:27:56.591Z,1.53
2018-01-19T06:29:06.747Z,1.55
2018-01-19T06:30:16.949Z,1.62
2018-01-19T06:31:27.074Z,1.6
2018-01-19T06:32:37.327Z,1.6
2018-01-19T06:33:47.582Z,1.58
2018-01-19T06:34:57.764Z,1.53
2018-01-19T06:36:07.931Z,1.55
2018-01-19T06:37:18.107Z,1.58
2018-01-19T06:38:28.270Z,1.62
2018-01-19T06:39:38.412Z,1.55
2018-01-19T06:40:48.526Z,1.58
2018-01-19T06:41:58.684Z,1.58
2018-01-19T06:43:08.798Z,1.58
2018-01-19T06:44:18.928Z,1.54
2018-01-19T06:45:29.074Z,1.54
2018-01-19T06:46:39.181Z,1.54
2018-01-19T06:47:49.339Z,1.54
2018-01-19T06:48:59.485Z,1.76
2018-01-19T06:50:09.632Z,1.72
2018-01-19T06:51:19.923Z,1.73
2018-01-19T06:52:29.787Z,1.69
2018-01-19T06:53:39.914Z,1.72
2018-01-19T06:54:50.041Z,1.7
2018-01-19T06:56:00.274Z,1.76
2018-01-19T06:57:10.462Z,1.74
2018-01-19T06:58:20.594Z,1.73
2018-01-19T06:59:30.741Z,1.72
2018-01-19T07:00:40.860Z,1.72
2018-01-19T07:01:50.975Z,1.72
2018-01-19T07:03:01.105Z,1.79
2018-01-19T07:04:11.354Z,1.77
2018-01-19T07:05:21.589Z,1.88
2018-01-19T07:06:31.831Z,1.8
2018-01-19T07:07:42.059Z,1.84
2018-01-19T07:08:52.249Z,1.82
2018-01-19T07:10:02.458Z,1.84
2018-01-19T07:11:12.618Z,1.84
2018-01-19T07:12:22.845Z,1.82
2018-01-19T07:13:33.139Z,1.85
2018-01-19T07:14:43.388Z,1.74
2018-01-19T07:15:53.256Z,1.76
2018-01-19T07:17:03.393Z,1.72
2018-01-19T07:18:13.518Z,1.74
2018-01-19T07:19:23.852Z,1.73
2018-01-19T07:20:33.717Z,1.73
2018-01-19T07:21:43.835Z,1.73
2018-01-19T07:22:53.968Z,1.77
2018-01-19T07:24:04.204Z,1.7
2018-01-19T07:25:14.496Z,1.77
2018-01-19T07:26:24.299Z,1.72
2018-01-19T07:27:34.180Z,1.73
2018-01-19T07:28:44.107Z,1.67
2018-01-19T07:29:54.298Z,1.74
2018-01-19T07:31:04.563Z,1.69
2018-01-19T07:32:14.477Z,1.84
2018-01-19T07:33:24.613Z,1.72
2018-01-19T07:34:34.773Z,1.73
2018-01-19T07:35:44.886Z,1.8
2018-01-19T07:36:54.994Z,1.74
2018-01-19T07:38:05.125Z,1.76
2018-01-19T07:39:15.261Z,1.74
2018-01-19T07:40:25.426Z,1.74
2018-01-19T07:41:35.564Z,1.76
2018-01-19T07:42:45.755Z,1.73
2018-01-19T07:43:55.961Z,1.74
2018-01-19T07:45:06.111Z,1.79
2018-01-19T07:46:16.043Z,1.73
2018-01-19T07:47:26.198Z,1.77
2018-01-19T07:48:36.346Z,1.8
2018-01-19T07:49:46.541Z,1.82
2018-01-19T07:50:56.707Z,1.79
2018-01-19T07:52:06.920Z,1.85
2018-01-19T07:53:17.120Z,1.76
2018-01-19T07:54:27.251Z,1.76
2018-01-19T07:55:37.394Z,1.77
2018-01-19T07:56:47.567Z,1.85
2018-01-19T07:57:57.730Z,1.87
2018-01-19T07:59:07.881Z,1.92
2018-01-19T08:00:18.008Z,1.88
2018-01-19T08:01:28.283Z,1.85
2018-01-19T08:02:38.400Z,1.85
2018-01-19T08:03:48.523Z,1.95
2018-01-19T08:04:58.646Z,1.95
2018-01-19T08:06:08.766Z,1.97
2018-01-19T08:07:18.886Z,1.92
2018-01-19T08:08:28.763Z,1.97
2018-01-19T08:09:39.072Z,1.97
2018-01-19T08:10:49.283Z,1.95
2018-01-19T08:11:59.415Z,1.97
2018-01-19T08:13:09.655Z,2.01
2018-01-19T08:14:19.790Z,1.94
2018-01-19T08:15:30.027Z,2.08
2018-01-19T08:16:40.291Z,2.06
2018-01-19T08:17:50.505Z,2.06
2018-01-19T08:19:00.698Z,2.05
2018-01-19T08:20:10.868Z,2.06
2018-01-19T08:21:21.165Z,2.01
2018-01-19T08:22:31.404Z,2.06
2018-01-19T08:23:41.624Z,2.03
2018-01-19T08:24:51.841Z,2.01
2018-01-19T08:26:02.087Z,2.05
2018-01-19T08:27:12.279Z,2.08
2018-01-19T08:28:22.443Z,2.05
2018-01-19T08:29:33.668Z,2.12
2018-01-19T08:30:43.916Z,2.12
2018-01-19T08:31:54.051Z,2.09
2018-01-19T08:33:04.186Z,2.15
2018-01-19T08:34:14.373Z,2.15
2018-01-19T08:35:24.515Z,2.21
2018-01-19T08:36:34.671Z,2.21
2018-01-19T08:37:44.789Z,2.16
2018-01-19T08:38:54.915Z,2.16
2018-01-19T08:40:05.070Z,2.23
2018-01-19T08:41:15.289Z,2.16
2018-01-19T08:42:25.449Z,2.18
2018-01-19T08:43:35.588Z,2.12
2018-01-19T08:44:45.728Z,2.19
2018-01-19T08:45:55.900Z,2.26
2018-01-19T08:47:06.080Z,2.18
2018-01-19T08:48:16.235Z,2.23
2018-01-19T08:49:26.413Z,2.26
2018-01-19T08:50:36.602Z,2.23
2018-01-19T08:51:46.989Z,2.15
2018-01-19T08:52:57.194Z,2.21
2018-01-19T08:54:07.365Z,2.27
2018-01-19T08:55:17.615Z,2.27
2018-01-19T08:56:27.787Z,2.24
2018-01-19T08:57:37.948Z,2.3
2018-01-19T08:58:48.154Z,2.3
2018-01-19T08:59:58.031Z,2.44
2018-01-19T09:01:08.183Z,2.46
2018-01-19T09:02:18.390Z,2.45
2018-01-19T09:03:28.530Z,2.46
2018-01-19T09:04:38.765Z,2.53
2018-01-19T09:05:48.874Z,2.53
2018-01-19T09:06:59.043Z,2.59
2018-01-19T09:08:09.179Z,2.6
2018-01-19T09:09:19.360Z,2.64
2018-01-19T09:10:29.548Z,2.6
2018-01-19T09:11:39.731Z,2.63
2018-01-19T09:12:49.922Z,2.6
2018-01-19T09:14:00.217Z,2.66
2018-01-19T09:15:10.403Z,2.74
2018-01-19T09:16:20.564Z,2.71
2018-01-19T09:17:30.772Z,2.81
2018-01-19T09:18:41.056Z,2.82
2018-01-19T09:19:51.332Z,2.91
2018-01-19T09:21:01.497Z,2.92
2018-01-19T09:22:11.816Z,2.91
2018-01-19T09:23:21.952Z,2.97
2018-01-19T09:24:32.112Z,3.1
2018-01-19T09:25:42.313Z,3.04
2018-01-19T09:26:52.484Z,3.04
2018-01-19T09:28:02.667Z,3.08
2018-01-19T09:29:12.810Z,3.08
2018-01-19T09:30:22.966Z,3.08
2018-01-19T09:31:33.112Z,3.04
2018-01-19T09:32:43.218Z,3.06
2018-01-19T09:33:53.152Z,2.92
2018-01-19T09:35:03.322Z,2.97
2018-01-19T09:36:13.578Z,2.92
2018-01-19T09:37:23.750Z,2.91
2018-01-19T09:38:33.913Z,2.89
2018-01-19T09:39:44.091Z,2.92
2018-01-19T09:40:54.326Z,2.94
2018-01-19T09:42:04.553Z,2.96
2018-01-19T09:43:14.686Z,2.88
2018-01-19T09:44:24.953Z,2.91
2018-01-19T09:45:35.274Z,2.96
2018-01-19T09:46:45.444Z,2.81
2018-01-19T09:47:55.651Z,2.85
2018-01-19T09:49:05.897Z,2.85
2018-01-19T09:50:16.078Z,2.79
2018-01-19T09:51:26.289Z,2.87
2018-01-19T09:52:36.151Z,2.84
2018-01-19T09:53:46.284Z,2.78
2018-01-19T09:54:57.379Z,2.74
2018-01-19T09:56:07.821Z,2.73
2018-01-19T09:57:18.044Z,2.77
2018-01-19T09:58:28.207Z,2.67
2018-01-19T09:59:38.353Z,2.64
2018-01-19T10:00:48.727Z,2.64
2018-01-19T10:01:58.852Z,2.66
2018-01-19T10:03:09.030Z,2.52
2018-01-19T10:04:19.149Z,2.53
2018-01-19T10:05:29.291Z,2.63
2018-01-19T10:06:39.624Z,2.6
2018-01-19T10:07:49.796Z,2.64
2018-01-19T10:08:59.944Z,2.67
2018-01-19T10:10:10.067Z,2.71
2018-01-19T10:11:20.185Z,2.77
2018-01-19T10:12:30.343Z,2.82
2018-01-19T10:13:40.495Z,2.89
2018-01-19T10:14:50.677Z,2.99
2018-01-19T10:16:00.822Z,2.91
2018-01-19T10:17:10.715Z,3.07
2018-01-19T10:18:20.875Z,3.07
2018-01-19T10:19:31.056Z,3.06
2018-01-19T10:20:41.213Z,3.25
2018-01-19T10:21:51.361Z,3.21
2018-01-19T10:23:01.508Z,3.21
2018-01-19T10:24:11.657Z,3.31
2018-01-19T10:25:21.828Z,3.42
2018-01-19T10:26:31.992Z,3.54
2018-01-19T10:27:42.206Z,3.55
2018-01-19T10:28:52.374Z,3.67
2018-01-19T10:30:02.690Z,3.69
2018-01-19T10:31:12.833Z,3.69
2018-01-19T10:32:22.709Z,3.73
2018-01-19T10:33:32.850Z,3.87
2018-01-19T10:34:42.736Z,3.98
2018-01-19T10:35:52.908Z,4.27
2018-01-19T10:37:03.016Z,4.62
2018-01-19T10:38:13.318Z,4.67
2018-01-19T10:39:23.530Z,4.95
2018-01-19T10:40:33.689Z,5.26
2018-01-19T10:41:43.320Z,5.33
2018-01-19T10:42:53.536Z,5.53
2018-01-19T10:44:04.212Z,5.71
2018-01-19T10:45:15.525Z,5.86
2018-01-19T10:46:27.368Z,5.96
2018-01-19T10:47:38.502Z,6.14
2018-01-19T10:48:49.266Z,6.28
2018-01-19T10:49:59.852Z,6.6
2018-01-19T10:51:09.993Z,6.72
2018-01-19T10:52:20.230Z,6.78
2018-01-19T10:53:30.537Z,6.95
2018-01-19T10:54:40.710Z,7.05
2018-01-19T10:55:50.632Z,7.26
2018-01-19T10:57:00.782Z,7.49
2018-01-19T10:58:10.905Z,7.48
2018-01-19T10:59:21.187Z,7.52
2018-01-19T11:00:31.402Z,7.49
2018-01-19T11:01:41.559Z,7.39
2018-01-19T11:02:51.931Z,7.37
2018-01-19T11:04:02.080Z,7.37
2018-01-19T11:05:12.275Z,7.24
2018-01-19T11:06:22.453Z,7.1
2018-01-19T11:07:32.363Z,7.18
2018-01-19T11:08:42.507Z,7.15
2018-01-19T11:09:52.702Z,7.18
2018-01-19T11:11:02.841Z,7.02
2018-01-19T11:12:13.014Z,6.99
2018-01-19T11:13:23.161Z,6.92
2018-01-19T11:14:33.336Z,6.99
2018-01-19T11:15:43.376Z,7.11
2018-01-19T11:16:53.525Z,7.11
2018-01-19T11:18:03.770Z,7.17
2018-01-19T11:19:13.933Z,7.29
2018-01-19T11:20:24.108Z,7.54
2018-01-19T11:21:34.413Z,7.73
2018-01-19T11:22:44.551Z,7.9
2018-01-19T11:23:54.437Z,8.03
2018-01-19T11:25:04.583Z,8.16
2018-01-19T11:26:14.733Z,8.39
2018-01-19T11:27:24.907Z,8.5
2018-01-19T11:28:35.048Z,8.74
2018-01-19T11:29:45.213Z,8.83
2018-01-19T11:30:55.364Z,8.92
2018-01-19T11:32:05.554Z,9.11
2018-01-19T11:33:15.706Z,9.16
2018-01-19T11:34:25.901Z,9.3
2018-01-19T11:35:36.098Z,9.34
2018-01-19T11:36:46.274Z,9.37
2018-01-19T11:37:56.408Z,9.58
2018-01-19T11:39:06.565Z,9.55
2018-01-19T11:40:17.778Z,9.56
2018-01-19T11:41:27.910Z,9.65
2018-01-19T11:42:38.045Z,9.6
2018-01-19T11:43:48.207Z,9.62
2018-01-19T11:44:58.409Z,9.77
2018-01-19T11:46:08.679Z,9.63
2018-01-19T11:47:18.938Z,9.65
2018-01-19T11:48:29.189Z,9.48
2018-01-19T11:49:39.363Z,9.34
2018-01-19T11:50:49.499Z,9.3
2018-01-19T11:51:59.693Z,9.05
2018-01-19T11:53:09.856Z,9
2018-01-19T11:54:20.108Z,8.68
2018-01-19T11:55:30.057Z,8.45
2018-01-19T11:56:40.255Z,8.17
2018-01-19T11:57:50.424Z,7.99
2018-01-19T11:59:00.556Z,7.88
2018-01-19T12:00:10.466Z,7.74
2018-01-19T12:01:20.604Z,7.58
2018-01-19T12:02:30.768Z,7.52
2018-01-19T12:03:41.018Z,7.31
2018-01-19T12:04:51.167Z,7.18
2018-01-19T12:06:01.322Z,6.96
2018-01-19T12:07:11.488Z,6.9
2018-01-19T12:08:21.735Z,6.92
2018-01-19T12:09:32.055Z,7
2018-01-19T12:10:42.290Z,7.05
2018-01-19T12:11:52.442Z,7.02
2018-01-19T12:13:02.652Z,7.1
2018-01-19T12:14:12.809Z,7.03
2018-01-19T12:15:22.794Z,7.06
2018-01-19T12:16:33.287Z,7.15
2018-01-19T12:17:43.444Z,7.1
2018-01-19T12:18:53.608Z,7.03
2018-01-19T12:20:03.757Z,7.22
2018-01-19T12:21:13.926Z,7.33
2018-01-19T12:22:25.010Z,7.64
2018-01-19T12:23:35.180Z,7.84
2018-01-19T12:24:45.486Z,7.77
2018-01-19T12:25:55.678Z,7.94
2018-01-19T12:27:05.847Z,8.12
2018-01-19T12:28:15.838Z,8.03
2018-01-19T12:29:25.967Z,8.07
2018-01-19T12:30:36.134Z,8.1
2018-01-19T12:31:46.282Z,8.37
2018-01-19T12:32:55.958Z,8.45
2018-01-19T12:34:06.188Z,8.48
2018-01-19T12:35:16.408Z,8.48
2018-01-19T12:36:26.643Z,8.46
2018-01-19T12:37:36.423Z,8.37
2018-01-19T12:38:46.604Z,8.31
2018-01-19T12:39:56.894Z,7.99
2018-01-19T12:41:07.063Z,7.85
2018-01-19T12:42:17.289Z,7.73
2018-01-19T12:43:27.423Z,7.48
2018-01-19T12:44:37.585Z,7.2
2018-01-19T12:45:47.818Z,7.17
2018-01-19T12:46:58.065Z,7.03
2018-01-19T12:48:08.284Z,6.95
2018-01-19T12:49:18.465Z,6.81
2018-01-19T12:50:28.887Z,6.74
2018-01-19T12:51:39.044Z,6.77
2018-01-19T12:52:49.302Z,6.79
2018-01-19T12:53:59.438Z,6.66
2018-01-19T12:55:09.584Z,6.59
2018-01-19T12:56:19.838Z,6.56
2018-01-19T12:57:30.129Z,6.49
2018-01-19T12:58:40.286Z,6.46
2018-01-19T12:59:50.488Z,6.2
2018-01-19T13:01:00.727Z,6.12
2018-01-19T13:02:10.960Z,6.06
2018-01-19T13:03:21.098Z,6.03
2018-01-19T13:04:31.239Z,5.94
2018-01-19T13:05:41.417Z,5.75
2018-01-19T13:06:51.562Z,5.83
2018-01-19T13:08:01.781Z,5.69
2018-01-19T13:09:11.999Z,5.62
2018-01-19T13:10:22.149Z,5.59
2018-01-19T13:11:32.354Z,5.53
2018-01-19T13:12:42.579Z,5.29
2018-01-19T13:13:52.747Z,5.24
2018-01-19T13:15:02.946Z,5.29
2018-01-19T13:16:13.183Z,5.18
2018-01-19T13:17:23.450Z,5.1
2018-01-19T13:18:33.707Z,5.03
2018-01-19T13:19:43.951Z,4.98
2018-01-19T13:20:54.139Z,4.98
2018-01-19T13:22:04.525Z,4.95
2018-01-19T13:23:14.739Z,4.95
2018-01-19T13:24:24.896Z,4.81
2018-01-19T13:25:35.032Z,4.85
2018-01-19T13:26:44.681Z,4.81
2018-01-19T13:27:54.907Z,4.71
2018-01-19T13:29:05.112Z,4.63
2018-01-19T13:30:15.096Z,4.74
2018-01-19T13:31:25.246Z,4.65
2018-01-19T13:32:35.477Z,4.71
2018-01-19T13:33:45.380Z,4.7
2018-01-19T13:34:55.506Z,4.6
2018-01-19T13:36:05.762Z,4.67
2018-01-19T13:37:15.956Z,4.55
2018-01-19T13:38:26.128Z,4.6
2018-01-19T13:39:36.059Z,4.5
2018-01-19T13:40:46.266Z,4.55
2018-01-19T13:41:56.553Z,4.37
2018-01-19T13:43:07.008Z,4.38
2018-01-19T13:44:17.156Z,4.33
2018-01-19T13:45:27.343Z,4.34
2018-01-19T13:46:37.498Z,4.33
2018-01-19T13:47:47.673Z,4.23
2018-01-19T13:48:57.815Z,4.16
2018-01-19T13:50:07.937Z,4.23
2018-01-19T13:51:18.105Z,4.27
2018-01-19T13:52:29.232Z,4.22
2018-01-19T13:53:39.401Z,4.2
2018-01-19T13:54:49.691Z,4.18
2018-01-19T13:55:59.898Z,4.18
2018-01-19T13:57:10.095Z,4.22
2018-01-19T13:58:20.366Z,4.19
2018-01-19T13:59:30.588Z,4.13
2018-01-19T14:00:40.754Z,4.23
2018-01-19T14:01:50.935Z,4.19
2018-01-19T14:03:01.140Z,4.12
2018-01-19T14:04:11.388Z,4.16
2018-01-19T14:05:21.294Z,4.12
2018-01-19T14:06:31.428Z,4.18
2018-01-19T14:07:41.660Z,4.09
2018-01-19T14:08:51.823Z,4.15
2018-01-19T14:10:05.060Z,4.11
2018-01-19T14:11:19.802Z,4
2018-01-19T14:12:32.129Z,4.05
2018-01-19T14:13:42.359Z,4.03
2018-01-19T14:14:52.575Z,4.09
2018-01-19T14:16:02.673Z,4.05
2018-01-19T14:17:13.292Z,4.04
2018-01-19T14:18:23.429Z,3.98
2018-01-19T14:19:33.642Z,3.95
2018-01-19T14:20:43.828Z,4.03
2018-01-19T14:21:54.123Z,3.95
2018-01-19T14:23:04.305Z,3.85
2018-01-19T14:24:14.466Z,3.97
2018-01-19T14:25:24.631Z,3.95
2018-01-19T14:26:34.950Z,3.91
2018-01-19T14:27:45.153Z,3.97
2018-01-19T14:28:55.062Z,3.9
2018-01-19T14:30:05.012Z,3.85
2018-01-19T14:31:15.192Z,3.9
2018-01-19T14:32:25.444Z,3.86
2018-01-19T14:33:35.677Z,3.8
2018-01-19T14:34:45.965Z,3.76
2018-01-19T14:35:55.930Z,3.8
2018-01-19T14:37:06.112Z,3.69
2018-01-19T14:38:16.269Z,3.75
2018-01-19T14:39:26.293Z,3.76
2018-01-19T14:40:36.540Z,3.75
2018-01-19T14:41:46.737Z,3.82
2018-01-19T14:42:56.933Z,3.68
2018-01-19T14:44:07.205Z,3.64
2018-01-19T14:45:17.391Z,3.73
2018-01-19T14:46:26.954Z,3.65
2018-01-19T14:47:37.388Z,3.64
2018-01-19T14:48:47.622Z,3.65
2018-01-19T14:49:57.873Z,3.57
2018-01-19T14:51:08.185Z,3.58
2018-01-19T14:52:18.396Z,3.55
2018-01-19T14:53:28.544Z,3.52
2018-01-19T14:54:38.819Z,3.47
2018-01-19T14:55:48.977Z,3.54
2018-01-19T14:56:59.207Z,3.54
2018-01-19T14:58:09.338Z,3.49
2018-01-19T14:59:19.553Z,3.46
2018-01-19T15:00:29.767Z,3.44
2018-01-19T15:01:39.671Z,3.42
2018-01-19T15:02:49.812Z,3.43
2018-01-19T15:03:59.978Z,3.34
2018-01-19T15:05:10.147Z,3.32
2018-01-19T15:06:20.400Z,3.26
2018-01-19T15:07:30.352Z,3.24
2018-01-19T15:08:40.514Z,3.22
2018-01-19T15:09:50.693Z,3.11
2018-01-19T15:11:00.595Z,3.08
2018-01-19T15:12:10.780Z,3.07
2018-01-19T15:13:20.921Z,3.06
2018-01-19T15:14:31.081Z,3.11
2018-01-19T15:15:41.345Z,3.13
2018-01-19T15:16:51.259Z,3.1
2018-01-19T15:18:01.403Z,3.11
2018-01-19T15:19:11.662Z,3.06
2018-01-19T15:20:21.810Z,2.97
2018-01-19T15:21:31.993Z,2.99
2018-01-19T15:22:42.181Z,3.04
2018-01-19T15:23:53.329Z,3.11
2018-01-19T15:25:03.500Z,3.04
2018-01-19T15:26:13.733Z,3.04
2018-01-19T15:27:23.729Z,3.04
2018-01-19T15:28:33.882Z,2.99
2018-01-19T15:29:43.794Z,3.02
2018-01-19T15:30:53.961Z,3.02
2018-01-19T15:32:04.115Z,3.04
2018-01-19T15:33:14.292Z,2.97
2018-01-19T15:34:24.274Z,3.04
2018-01-19T15:35:34.453Z,3.04
2018-01-19T15:36:44.704Z,3.04
2018-01-19T15:37:54.479Z,3.04
2018-01-19T15:39:04.712Z,3.1